Time;durP1;ratioP1;P1;durP2;ratioP2;P2;SDS_P1;SDS_P2;PMS_P1;PMS_P2;Temp;Humidity;BMP_temperature;BMP_pressure;BME280_temperature;BME280_humidity;BME280_pressure;Samples;Min_cycle;Max_cycle;Signal;HPM_P1;HPM_P2
2023/08/27 00:00:10;;;;;;;3.42;1.80;;;12.60;99.90;;;;;;5053460;28;20045;-57
2023/08/27 00:02:40;;;;;;;4.07;1.70;;;12.50;99.90;;;;;;5052974;28;20041;-56
2023/08/27 00:05:07;;;;;;;5.03;2.00;;;12.50;99.90;;;;;;5052562;28;20041;-59
2023/08/27 00:07:37;;;;;;;2.90;1.60;;;12.50;99.90;;;;;;5052873;28;20188;-58
2023/08/27 00:10:04;;;;;;;3.30;1.80;;;12.50;99.90;;;;;;5052607;28;20400;-56
2023/08/27 00:12:31;;;;;;;3.05;1.73;;;12.50;99.90;;;;;;5052405;28;20044;-58
2023/08/27 00:14:57;;;;;;;5.00;2.10;;;12.50;99.90;;;;;;5052576;28;20546;-58
2023/08/27 00:17:28;;;;;;;7.30;1.95;;;12.50;99.90;;;;;;5051407;28;20052;-59
2023/08/27 00:19:55;;;;;;;3.47;2.05;;;12.50;99.90;;;;;;5052962;28;20106;-53
2023/08/27 00:22:22;;;;;;;3.90;1.77;;;12.50;99.90;;;;;;5051881;28;20044;-55
2023/08/27 00:24:49;;;;;;;4.25;2.10;;;12.40;99.90;;;;;;5053043;28;20416;-57
2023/08/27 00:27:16;;;;;;;5.43;1.80;;;12.40;99.90;;;;;;5051284;28;20052;-55
2023/08/27 00:29:43;;;;;;;4.25;2.20;;;12.40;99.90;;;;;;5051301;28;20041;-56
2023/08/27 00:32:09;;;;;;;6.28;2.83;;;12.40;99.90;;;;;;5051215;28;20132;-57
2023/08/27 00:34:51;;;;;;;4.88;2.55;;;12.40;99.90;;;;;;5051412;28;20053;-58
2023/08/27 00:37:19;;;;;;;4.22;2.17;;;12.30;99.90;;;;;;5051372;28;20150;-60
2023/08/27 00:39:46;;;;;;;5.15;2.67;;;12.30;99.90;;;;;;5051016;28;20037;-56
2023/08/27 00:42:12;;;;;;;6.05;2.70;;;12.30;99.90;;;;;;5051361;28;20041;-55
2023/08/27 00:44:39;;;;;;;3.95;2.25;;;12.30;99.90;;;;;;5051093;28;20407;-54
2023/08/27 00:47:06;;;;;;;4.15;2.20;;;12.40;99.90;;;;;;5052251;28;20186;-53
2023/08/27 00:49:33;;;;;;;5.53;2.50;;;12.40;99.90;;;;;;5055345;28;20499;-54
2023/08/27 00:52:00;;;;;;;5.88;2.40;;;12.40;99.90;;;;;;5056213;28;20431;-55
2023/08/27 00:54:27;;;;;;;4.82;2.40;;;12.40;99.90;;;;;;5054709;28;20044;-53
2023/08/27 00:56:53;;;;;;;4.47;2.60;;;12.40;99.90;;;;;;5054656;28;20135;-51
2023/08/27 00:59:20;;;;;;;5.07;2.65;;;12.40;99.90;;;;;;5055116;28;20057;-52
2023/08/27 01:01:47;;;;;;;5.32;2.25;;;12.40;99.90;;;;;;5055163;28;20472;-57
2023/08/27 01:04:14;;;;;;;5.30;2.78;;;12.40;99.90;;;;;;5056339;28;20041;-56
2023/08/27 01:06:41;;;;;;;4.82;2.30;;;12.40;99.90;;;;;;5054709;28;20139;-54
2023/08/27 01:09:09;;;;;;;5.60;2.45;;;12.40;99.90;;;;;;5056104;28;20465;-53
2023/08/27 01:11:36;;;;;;;5.15;2.30;;;12.40;99.90;;;;;;5056607;28;20053;-58
2023/08/27 01:14:03;;;;;;;4.97;2.40;;;12.40;99.90;;;;;;5054861;28;20130;-51
2023/08/27 01:16:30;;;;;;;6.22;2.30;;;12.40;99.90;;;;;;5054896;28;20045;-56
2023/08/27 01:18:57;;;;;;;3.97;2.38;;;12.40;99.90;;;;;;5054516;28;20048;-52
2023/08/27 01:21:23;;;;;;;4.78;2.47;;;12.40;99.90;;;;;;5054659;28;20059;-55
2023/08/27 01:23:50;;;;;;;6.32;2.70;;;12.40;99.90;;;;;;5055811;28;20040;-55
2023/08/27 01:26:17;;;;;;;4.88;2.42;;;12.40;99.90;;;;;;5037878;28;20049;-56
2023/08/27 01:28:44;;;;;;;3.17;2.38;;;12.50;99.90;;;;;;5056215;28;20045;-58
2023/08/27 01:31:11;;;;;;;4.88;2.35;;;12.50;99.90;;;;;;5055467;28;20089;-54
2023/08/27 01:33:38;;;;;;;6.00;2.45;;;12.50;99.90;;;;;;5054294;28;20037;-58
2023/08/27 01:36:05;;;;;;;6.03;2.53;;;12.50;99.90;;;;;;5054107;28;20053;-56
2023/08/27 01:38:32;;;;;;;5.90;2.75;;;12.50;99.90;;;;;;5054350;28;20171;-61
2023/08/27 01:40:59;;;;;;;4.47;2.40;;;12.60;99.90;;;;;;5054746;28;20377;-55
2023/08/27 01:43:28;;;;;;;4.85;2.70;;;12.60;99.90;;;;;;5055452;28;20037;-54
2023/08/27 01:45:55;;;;;;;7.57;2.85;;;12.60;99.90;;;;;;5055208;28;20071;-59
2023/08/27 01:48:22;;;;;;;3.92;2.70;;;12.70;99.90;;;;;;5055488;28;20118;-58
2023/08/27 01:50:49;;;;;;;6.63;2.80;;;12.70;99.90;;;;;;5055041;28;20084;-54
2023/08/27 01:53:16;;;;;;;4.70;2.90;;;12.70;99.90;;;;;;5055201;28;20059;-55
2023/08/27 01:55:43;;;;;;;4.78;2.97;;;12.70;99.90;;;;;;5055074;28;20408;-61
2023/08/27 01:58:10;;;;;;;6.22;2.90;;;12.70;99.90;;;;;;5053543;28;20037;-54
2023/08/27 02:00:37;;;;;;;5.25;2.63;;;12.70;99.90;;;;;;5052723;28;20036;-55
2023/08/27 02:03:05;;;;;;;5.35;2.72;;;12.70;99.90;;;;;;5053859;28;20124;-58
2023/08/27 02:05:32;;;;;;;6.18;3.30;;;12.70;99.90;;;;;;5053965;28;20037;-55
2023/08/27 02:07:59;;;;;;;6.45;3.00;;;12.80;99.90;;;;;;5037060;28;20087;-59
2023/08/27 02:10:26;;;;;;;5.90;3.30;;;12.80;99.90;;;;;;5055482;28;20391;-56
2023/08/27 02:12:53;;;;;;;5.80;3.35;;;12.80;99.90;;;;;;5055674;28;20120;-61
2023/08/27 02:15:20;;;;;;;7.72;3.17;;;12.80;99.90;;;;;;5055208;28;20151;-55
2023/08/27 02:17:47;;;;;;;7.80;3.55;;;12.80;99.90;;;;;;5053347;28;20052;-55
2023/08/27 02:20:14;;;;;;;5.75;3.33;;;12.80;99.90;;;;;;5036742;28;20495;-55
2023/08/27 02:22:40;;;;;;;5.95;4.15;;;12.80;99.90;;;;;;5053581;28;20045;-59
2023/08/27 02:25:07;;;;;;;6.57;3.78;;;12.80;99.90;;;;;;5053155;28;20072;-55
2023/08/27 02:27:34;;;;;;;5.97;3.30;;;12.80;99.90;;;;;;5053207;28;20045;-56
2023/08/27 02:30:01;;;;;;;7.10;3.55;;;12.80;99.90;;;;;;5053519;28;20143;-57
2023/08/27 02:32:28;;;;;;;6.10;3.60;;;12.80;99.90;;;;;;5054882;28;20135;-59
2023/08/27 02:34:55;;;;;;;5.88;3.33;;;12.70;99.90;;;;;;5054519;28;20079;-56
2023/08/27 02:37:22;;;;;;;6.97;3.15;;;12.70;99.90;;;;;;5053308;28;20144;-56
2023/08/27 02:39:49;;;;;;;5.63;3.10;;;12.60;99.90;;;;;;5054640;28;20464;-56
2023/08/27 02:42:16;;;;;;;10.77;3.72;;;12.60;99.90;;;;;;5053001;28;20048;-57
2023/08/27 02:44:43;;;;;;;7.13;3.00;;;12.60;99.90;;;;;;5054274;28;20124;-58
2023/08/27 02:47:10;;;;;;;6.10;2.97;;;12.50;99.90;;;;;;5054255;28;20438;-57
2023/08/27 02:49:37;;;;;;;6.95;2.80;;;12.50;99.90;;;;;;5054538;28;20040;-59
2023/08/27 02:52:03;;;;;;;4.80;3.20;;;12.50;99.90;;;;;;5053145;28;20396;-58
2023/08/27 02:54:30;;;;;;;6.32;2.90;;;12.50;99.90;;;;;;5053076;28;20053;-56
2023/08/27 02:56:57;;;;;;;5.10;2.95;;;12.50;99.90;;;;;;5054082;28;20532;-55
2023/08/27 02:59:24;;;;;;;5.45;3.00;;;12.40;99.90;;;;;;5053976;28;20475;-54
2023/08/27 03:01:51;;;;;;;7.18;2.72;;;12.40;99.90;;;;;;5052501;28;20041;-60
2023/08/27 03:04:18;;;;;;;5.28;3.08;;;12.30;99.90;;;;;;5052928;28;20376;-59
2023/08/27 03:06:45;;;;;;;6.85;2.92;;;12.30;99.90;;;;;;5052945;28;20075;-59
2023/08/27 03:09:12;;;;;;;4.45;2.78;;;12.30;99.90;;;;;;5054467;28;20048;-57
2023/08/27 03:11:38;;;;;;;5.97;3.22;;;12.20;99.90;;;;;;5052302;28;20045;-53
2023/08/27 03:14:06;;;;;;;4.63;2.90;;;12.20;99.90;;;;;;5053998;28;20037;-59
2023/08/27 03:16:33;;;;;;;5.07;3.05;;;12.10;99.90;;;;;;5052811;28;20056;-55
2023/08/27 03:19:00;;;;;;;6.47;3.22;;;12.10;99.90;;;;;;5036008;28;20049;-60
2023/08/27 03:21:27;;;;;;;3.95;2.67;;;12.10;99.90;;;;;;5052679;28;20392;-57
2023/08/27 03:23:55;;;;;;;4.18;3.05;;;12.10;99.90;;;;;;5052020;28;20098;-60
2023/08/27 03:26:22;;;;;;;5.72;2.55;;;12.10;99.90;;;;;;5052108;28;20134;-56
2023/08/27 03:28:48;;;;;;;7.50;2.80;;;12.10;99.90;;;;;;5053743;28;20090;-56
2023/08/27 03:31:15;;;;;;;5.53;2.72;;;12.00;99.90;;;;;;5053674;28;20041;-58
2023/08/27 03:33:42;;;;;;;5.35;3.25;;;12.00;99.90;;;;;;5053712;28;20041;-57
2023/08/27 03:36:09;;;;;;;3.58;2.80;;;11.90;99.90;;;;;;5053130;28;20069;-56
2023/08/27 03:38:36;;;;;;;6.93;3.08;;;12.00;99.90;;;;;;5051626;28;20045;-60
2023/08/27 03:41:03;;;;;;;5.10;3.13;;;11.90;99.90;;;;;;5052113;28;20040;-58
2023/08/27 03:43:30;;;;;;;6.20;2.88;;;11.80;99.90;;;;;;5052129;28;20457;-60
2023/08/27 03:45:57;;;;;;;4.35;2.70;;;11.90;99.90;;;;;;5051746;28;20071;-56
2023/08/27 03:48:24;;;;;;;5.82;2.85;;;11.80;99.90;;;;;;5051413;28;20037;-60
2023/08/27 03:50:50;;;;;;;4.50;2.65;;;11.80;99.90;;;;;;5051453;28;20162;-52
2023/08/27 03:53:17;;;;;;;6.57;2.85;;;11.80;99.90;;;;;;5051537;28;20506;-55
2023/08/27 03:55:44;;;;;;;6.03;2.70;;;11.70;99.90;;;;;;5053327;28;20407;-60
2023/08/27 03:58:11;;;;;;;6.00;2.75;;;11.70;99.90;;;;;;5052876;28;20116;-63
2023/08/27 04:00:38;;;;;;;3.90;2.50;;;11.70;99.90;;;;;;5051984;28;20365;-51
2023/08/27 04:03:06;;;;;;;3.55;2.75;;;11.70;99.90;;;;;;5053176;28;20091;-58
2023/08/27 04:05:33;;;;;;;3.15;2.53;;;11.60;99.90;;;;;;5051798;28;20476;-56
2023/08/27 04:08:00;;;;;;;5.63;3.03;;;11.60;99.90;;;;;;5051260;28;20033;-58
2023/08/27 04:10:27;;;;;;;5.90;2.88;;;11.60;99.90;;;;;;5051249;28;20053;-55
2023/08/27 04:12:54;;;;;;;4.70;3.17;;;11.60;99.90;;;;;;5035409;28;20048;-56
2023/08/27 04:15:22;;;;;;;4.05;2.42;;;11.60;99.90;;;;;;5051577;28;20443;-59
2023/08/27 04:17:49;;;;;;;3.63;2.58;;;11.60;99.90;;;;;;5051332;28;20045;-57
2023/08/27 04:20:15;;;;;;;4.20;2.80;;;11.60;99.90;;;;;;5051682;28;20428;-55
2023/08/27 04:22:42;;;;;;;4.78;2.90;;;11.50;99.90;;;;;;5051476;28;20090;-57
2023/08/27 04:25:10;;;;;;;5.05;2.45;;;11.60;99.90;;;;;;5055457;28;20476;-56
2023/08/27 04:27:37;;;;;;;5.20;2.80;;;11.60;99.90;;;;;;5038792;28;20049;-60
2023/08/27 04:30:04;;;;;;;4.03;2.50;;;11.50;99.90;;;;;;5055929;28;20041;-58
2023/08/27 04:32:31;;;;;;;6.03;3.10;;;11.50;99.90;;;;;;5057066;28;20047;-57
2023/08/27 04:34:58;;;;;;;3.97;2.60;;;11.50;99.90;;;;;;5056632;28;20043;-58
2023/08/27 04:37:25;;;;;;;6.32;2.80;;;11.40;99.90;;;;;;5055106;28;20053;-58
2023/08/27 04:39:52;;;;;;;4.95;2.55;;;11.40;99.90;;;;;;5055388;28;20449;-58
2023/08/27 04:42:19;;;;;;;4.55;2.50;;;11.40;99.90;;;;;;5056577;28;20041;-59
2023/08/27 04:44:46;;;;;;;5.45;2.55;;;11.40;99.90;;;;;;5054824;28;20049;-61
2023/08/27 04:47:13;;;;;;;6.20;3.00;;;11.40;99.90;;;;;;5055169;28;20091;-58
2023/08/27 04:49:40;;;;;;;5.22;2.83;;;11.40;99.90;;;;;;5054824;28;20055;-60
2023/08/27 04:52:07;;;;;;;4.53;2.75;;;11.40;99.90;;;;;;5055114;28;20152;-59
2023/08/27 04:54:55;;;;;;;4.65;2.67;;;11.30;99.90;;;;;;5056318;28;20041;-59
2023/08/27 04:57:22;;;;;;;5.35;3.05;;;11.30;99.90;;;;;;5054700;28;20508;-54
2023/08/27 04:59:49;;;;;;;5.15;2.88;;;11.30;99.90;;;;;;5054800;28;20083;-60
2023/08/27 05:02:15;;;;;;;4.47;2.50;;;11.30;99.90;;;;;;5054743;28;20438;-58
2023/08/27 05:04:42;;;;;;;5.78;2.70;;;11.30;99.90;;;;;;5054634;28;20044;-55
2023/08/27 05:07:10;;;;;;;3.88;2.60;;;11.20;99.90;;;;;;5054721;28;20067;-59
2023/08/27 05:09:37;;;;;;;4.45;2.72;;;11.20;99.90;;;;;;5054939;28;20060;-58
2023/08/27 05:12:05;;;;;;;6.53;2.90;;;11.20;99.90;;;;;;5054408;28;20091;-57
2023/08/27 05:14:31;;;;;;;5.18;2.80;;;11.20;99.90;;;;;;5054564;28;20049;-58
2023/08/27 05:17:00;;;;;;;5.07;2.72;;;11.20;99.90;;;;;;5054640;28;20059;-59
2023/08/27 05:19:26;;;;;;;3.40;2.55;;;11.20;99.90;;;;;;5054642;28;20044;-56
2023/08/27 05:21:53;;;;;;;6.93;2.90;;;11.20;99.90;;;;;;5054862;28;20059;-58
2023/08/27 05:24:20;;;;;;;3.92;2.58;;;11.30;99.90;;;;;;5054638;28;20033;-59
2023/08/27 05:26:47;;;;;;;4.13;2.58;;;11.30;99.90;;;;;;5054889;28;20056;-58
2023/08/27 05:29:13;;;;;;;4.13;2.85;;;11.30;99.90;;;;;;5054668;28;20041;-58
2023/08/27 05:31:40;;;;;;;7.25;2.80;;;11.30;99.90;;;;;;5038020;28;20480;-56
2023/08/27 05:34:07;;;;;;;6.05;2.45;;;11.30;99.90;;;;;;5038159;28;20139;-58
2023/08/27 05:36:34;;;;;;;4.35;2.80;;;11.30;99.90;;;;;;5054129;28;20047;-57
2023/08/27 05:39:00;;;;;;;4.15;2.80;;;11.30;99.90;;;;;;5053953;28;20120;-55
2023/08/27 05:41:28;;;;;;;5.75;2.85;;;11.30;99.90;;;;;;5053976;28;20045;-56
2023/08/27 05:43:55;;;;;;;5.38;2.60;;;11.30;99.90;;;;;;5053940;28;20080;-58
2023/08/27 05:46:22;;;;;;;4.95;2.58;;;11.30;99.90;;;;;;5055257;28;20068;-61
2023/08/27 05:48:49;;;;;;;5.25;3.17;;;11.40;99.90;;;;;;5053989;28;20041;-55
2023/08/27 05:51:16;;;;;;;4.97;3.13;;;11.40;99.90;;;;;;5053644;28;20055;-59
2023/08/27 05:53:43;;;;;;;4.20;2.60;;;11.50;99.90;;;;;;5053894;28;20051;-54
2023/08/27 05:56:09;;;;;;;5.30;2.70;;;11.50;99.90;;;;;;5053888;28;20441;-56
2023/08/27 05:58:36;;;;;;;3.92;2.20;;;11.50;99.90;;;;;;5053603;28;20076;-57
2023/08/27 06:01:04;;;;;;;5.13;2.90;;;11.50;99.90;;;;;;5053915;28;20132;-56
2023/08/27 06:03:31;;;;;;;4.65;2.78;;;11.60;99.90;;;;;;5053769;28;20080;-57
2023/08/27 06:05:58;;;;;;;3.78;2.28;;;11.60;99.90;;;;;;5055360;28;20044;-56
2023/08/27 06:08:25;;;;;;;5.65;2.70;;;11.60;99.90;;;;;;5054972;28;20038;-58
2023/08/27 06:10:52;;;;;;;4.60;2.42;;;11.70;99.90;;;;;;5053472;28;20072;-57
2023/08/27 06:13:19;;;;;;;3.83;2.55;;;11.70;99.90;;;;;;5053495;28;20052;-54
2023/08/27 06:15:45;;;;;;;3.83;2.38;;;11.70;99.90;;;;;;5053260;28;20041;-58
2023/08/27 06:18:12;;;;;;;4.75;2.50;;;11.70;99.90;;;;;;5053351;28;20049;-59
2023/08/27 06:20:39;;;;;;;4.00;2.40;;;11.80;99.90;;;;;;5053422;28;20049;-57
2023/08/27 06:23:07;;;;;;;6.70;2.63;;;11.80;99.90;;;;;;5037359;28;20492;-53
2023/08/27 06:25:34;;;;;;;4.63;2.47;;;11.80;99.90;;;;;;5053271;28;20041;-53
2023/08/27 06:28:01;;;;;;;3.13;1.92;;;11.80;99.90;;;;;;5053234;28;20041;-58
2023/08/27 06:30:28;;;;;;;5.43;2.20;;;11.90;99.90;;;;;;5054414;28;20072;-55
2023/08/27 06:32:57;;;;;;;4.20;2.33;;;11.90;99.90;;;;;;5053112;28;20052;-50
2023/08/27 06:35:24;;;;;;;6.47;2.28;;;11.90;99.90;;;;;;5053041;28;20049;-54
2023/08/27 06:37:51;;;;;;;4.43;2.28;;;11.90;99.90;;;;;;5054225;28;20071;-57
2023/08/27 06:40:18;;;;;;;3.53;2.10;;;12.00;99.90;;;;;;5054591;28;20037;-55
2023/08/27 06:42:45;;;;;;;4.97;2.20;;;12.00;99.90;;;;;;5054378;28;20041;-55
2023/08/27 06:45:16;;;;;;;3.70;2.08;;;12.00;99.90;;;;;;5052898;28;20044;-59
2023/08/27 06:47:43;;;;;;;4.18;2.38;;;12.00;99.90;;;;;;5052405;28;20037;-57
2023/08/27 06:50:10;;;;;;;6.97;2.20;;;12.00;99.90;;;;;;5052768;28;20156;-57
2023/08/27 06:52:37;;;;;;;3.63;2.00;;;12.00;99.90;;;;;;5053291;28;20045;-57
2023/08/27 06:55:04;;;;;;;3.90;2.13;;;12.10;99.90;;;;;;5054376;28;20045;-57
2023/08/27 06:57:33;;;;;;;7.70;1.90;;;12.10;99.90;;;;;;5053959;28;20064;-60
2023/08/27 07:00:01;;;;;;;4.95;2.33;;;12.10;99.90;;;;;;5053039;28;20045;-50
2023/08/27 07:02:28;;;;;;;4.32;2.10;;;12.10;99.90;;;;;;5052939;28;20044;-55
2023/08/27 07:04:55;;;;;;;4.78;2.42;;;12.20;99.90;;;;;;5054572;28;20049;-54
2023/08/27 07:07:22;;;;;;;7.43;2.22;;;12.20;99.90;;;;;;5053038;28;20040;-56
2023/08/27 07:09:49;;;;;;;4.63;2.00;;;12.30;99.90;;;;;;5052742;28;20041;-58
2023/08/27 07:12:16;;;;;;;3.53;2.05;;;12.30;99.90;;;;;;5054088;28;20037;-53
2023/08/27 07:14:43;;;;;;;4.53;2.22;;;12.30;99.90;;;;;;5053024;28;20045;-59
2023/08/27 07:17:10;;;;;;;5.68;2.38;;;12.30;99.90;;;;;;5054106;28;20095;-55
2023/08/27 07:19:37;;;;;;;3.85;2.20;;;12.30;99.90;;;;;;5053001;28;20465;-56
2023/08/27 07:22:04;;;;;;;3.53;2.10;;;12.40;99.90;;;;;;5052471;28;20064;-54
2023/08/27 07:24:30;;;;;;;5.97;2.22;;;12.40;99.90;;;;;;5052784;28;20048;-56
2023/08/27 07:26:57;;;;;;;6.05;2.35;;;12.40;99.90;;;;;;5052523;28;20045;-52
2023/08/27 07:29:24;;;;;;;6.95;2.67;;;12.40;99.90;;;;;;5052574;28;20132;-57
2023/08/27 07:31:51;;;;;;;3.50;2.17;;;12.50;99.90;;;;;;5053608;28;20037;-54
2023/08/27 07:34:18;;;;;;;4.22;2.42;;;12.50;99.90;;;;;;5053836;28;20068;-55
2023/08/27 07:36:45;;;;;;;2.80;1.85;;;12.50;99.90;;;;;;5052245;28;20052;-57
2023/08/27 07:39:14;;;;;;;5.85;2.20;;;12.60;99.90;;;;;;5052454;28;20053;-55
2023/08/27 07:41:41;;;;;;;5.32;1.73;;;12.60;99.90;;;;;;5052142;28;20447;-51
2023/08/27 07:44:08;;;;;;;5.93;2.20;;;12.60;99.90;;;;;;5052253;28;20075;-56
2023/08/27 07:46:35;;;;;;;4.75;2.10;;;12.70;99.90;;;;;;5045569;28;20049;-56
2023/08/27 07:49:02;;;;;;;3.25;1.75;;;12.70;99.90;;;;;;5014082;28;20053;-53
2023/08/27 07:51:29;;;;;;;3.88;2.17;;;12.80;99.90;;;;;;5012209;28;20046;-53
2023/08/27 07:53:56;;;;;;;4.25;1.83;;;12.80;99.90;;;;;;5012313;28;20444;-50
2023/08/27 07:56:25;;;;;;;6.07;2.00;;;12.90;99.90;;;;;;5012057;28;20140;-55
2023/08/27 07:58:52;;;;;;;4.05;2.00;;;12.90;99.90;;;;;;5010830;28;20052;-55
2023/08/27 08:01:18;;;;;;;4.35;2.10;;;13.00;99.90;;;;;;5017100;28;20045;-54
2023/08/27 08:03:45;;;;;;;3.40;1.80;;;13.00;99.90;;;;;;5015248;28;20392;-58
2023/08/27 08:06:13;;;;;;;5.70;1.95;;;13.10;99.90;;;;;;5032777;28;20041;-55
2023/08/27 08:08:39;;;;;;;2.85;1.80;;;13.10;99.90;;;;;;5032939;28;20048;-54
2023/08/27 08:11:06;;;;;;;4.30;1.75;;;13.20;99.90;;;;;;5031804;28;20041;-55
2023/08/27 08:13:34;;;;;;;3.17;1.60;;;13.20;99.90;;;;;;5030325;28;20503;-53
2023/08/27 08:16:02;;;;;;;2.90;1.42;;;13.30;99.90;;;;;;5026704;28;20045;-57
2023/08/27 08:18:30;;;;;;;4.60;1.50;;;13.30;99.90;;;;;;5028230;28;20041;-55
2023/08/27 08:20:59;;;;;;;3.15;1.60;;;13.30;99.90;;;;;;5026477;28;20376;-54
2023/08/27 08:23:27;;;;;;;2.75;1.30;;;13.40;99.90;;;;;;5026570;28;20042;-54
2023/08/27 08:25:54;;;;;;;2.65;1.45;;;13.40;99.90;;;;;;5032692;28;20152;-59
2023/08/27 08:28:22;;;;;;;4.35;1.42;;;13.50;99.90;;;;;;5026376;28;20053;-57
2023/08/27 08:30:49;;;;;;;4.80;1.73;;;13.50;99.90;;;;;;5025144;28;20121;-61
2023/08/27 08:33:16;;;;;;;8.73;3.55;;;13.60;99.90;;;;;;5024966;28;20048;-59
2023/08/27 08:35:43;;;;;;;4.70;2.30;;;13.70;99.90;;;;;;5031715;28;20053;-57
2023/08/27 08:38:09;;;;;;;4.22;1.90;;;13.80;99.90;;;;;;5032720;28;20132;-57
2023/08/27 08:40:36;;;;;;;4.32;2.03;;;13.90;99.90;;;;;;5032450;28;20499;-60
2023/08/27 08:43:03;;;;;;;8.20;2.30;;;14.00;99.90;;;;;;5032881;28;20125;-56
2023/08/27 08:45:30;;;;;;;4.80;2.00;;;14.10;99.90;;;;;;5032779;28;20145;-58
2023/08/27 08:47:57;;;;;;;6.95;2.03;;;14.20;99.90;;;;;;5032175;28;20044;-51
2023/08/27 08:50:24;;;;;;;4.97;1.80;;;14.20;99.90;;;;;;5032217;28;20158;-57
2023/08/27 08:52:51;;;;;;;5.20;2.47;;;14.30;99.90;;;;;;5031436;28;20571;-56
2023/08/27 08:55:18;;;;;;;5.38;1.70;;;14.30;99.90;;;;;;5032291;28;20072;-57
2023/08/27 08:57:45;;;;;;;3.90;1.60;;;14.40;99.90;;;;;;5031377;28;20037;-55
2023/08/27 09:00:11;;;;;;;5.53;1.45;;;14.40;99.90;;;;;;5030472;28;20113;-58
2023/08/27 09:02:39;;;;;;;3.63;1.52;;;14.50;99.90;;;;;;5032355;28;20091;-55
2023/08/27 09:05:06;;;;;;;8.63;1.88;;;14.50;99.90;;;;;;5032271;28;20473;-57
2023/08/27 09:07:33;;;;;;;5.95;2.80;;;14.60;99.90;;;;;;5032336;28;20057;-60
2023/08/27 09:09:59;;;;;;;5.70;2.45;;;14.70;99.90;;;;;;5033974;28;20042;-59
2023/08/27 09:12:26;;;;;;;4.30;1.80;;;14.70;99.90;;;;;;5036040;28;20453;-58
2023/08/27 09:14:53;;;;;;;3.38;1.20;;;14.80;99.90;;;;;;5035973;28;20045;-56
2023/08/27 09:17:20;;;;;;;3.63;1.08;;;14.90;99.90;;;;;;5035746;28;20089;-56
2023/08/27 09:19:47;;;;;;;3.05;1.15;;;14.90;99.90;;;;;;5035864;28;20041;-56
2023/08/27 09:22:13;;;;;;;5.18;1.30;;;15.00;99.90;;;;;;5034205;28;20045;-57
2023/08/27 09:24:40;;;;;;;5.55;1.20;;;15.10;99.90;;;;;;5035899;28;20037;-53
2023/08/27 09:27:07;;;;;;;4.75;1.60;;;15.20;99.90;;;;;;5035348;28;20036;-54
2023/08/27 09:29:34;;;;;;;4.80;1.73;;;15.30;99.90;;;;;;5035635;28;20042;-56
2023/08/27 09:32:01;;;;;;;3.28;1.05;;;15.40;99.90;;;;;;5034212;28;20056;-53
2023/08/27 09:34:27;;;;;;;4.15;1.38;;;15.50;99.90;;;;;;5035503;28;20060;-52
2023/08/27 09:36:54;;;;;;;3.75;1.45;;;15.60;99.90;;;;;;5035151;28;20068;-56
2023/08/27 09:39:21;;;;;;;3.40;1.20;;;15.60;99.90;;;;;;5034737;28;20388;-54
2023/08/27 09:41:48;;;;;;;3.83;1.20;;;15.70;99.90;;;;;;5034225;28;20033;-55
2023/08/27 09:44:17;;;;;;;4.88;1.30;;;15.90;99.90;;;;;;5035510;28;20041;-53
2023/08/27 09:46:43;;;;;;;3.63;1.20;;;16.00;99.90;;;;;;5035021;28;20045;-57
2023/08/27 09:49:10;;;;;;;6.10;1.20;;;16.00;99.90;;;;;;5035411;28;20045;-53
2023/08/27 09:51:37;;;;;;;3.50;1.27;;;16.10;99.90;;;;;;5034299;28;20107;-54
2023/08/27 09:54:04;;;;;;;6.38;1.38;;;16.10;99.90;;;;;;5035279;28;20037;-59
2023/08/27 09:56:31;;;;;;;4.50;1.38;;;16.20;99.90;;;;;;5035169;28;20049;-55
2023/08/27 09:58:57;;;;;;;3.40;0.85;;;16.30;99.90;;;;;;5035144;28;20120;-55
2023/08/27 10:01:25;;;;;;;2.95;1.20;;;16.40;99.90;;;;;;5035300;28;20113;-56
2023/08/27 10:03:53;;;;;;;3.90;1.02;;;16.50;99.90;;;;;;5033971;28;20045;-51
2023/08/27 10:06:20;;;;;;;4.90;1.50;;;16.60;99.90;;;;;;5034883;28;20080;-52
2023/08/27 10:08:47;;;;;;;2.22;0.93;;;16.80;99.90;;;;;;5035122;28;20044;-57
2023/08/27 10:11:14;;;;;;;1.90;0.90;;;17.00;99.90;;;;;;5033997;28;20041;-54
2023/08/27 10:13:41;;;;;;;2.85;1.30;;;17.20;99.90;;;;;;5033497;28;20372;-57
2023/08/27 10:16:07;;;;;;;3.42;1.30;;;17.30;99.90;;;;;;5034194;28;20353;-53
2023/08/27 10:18:34;;;;;;;3.25;1.30;;;17.50;99.90;;;;;;5034748;28;20053;-58
2023/08/27 10:21:01;;;;;;;3.60;1.23;;;17.50;99.90;;;;;;5033995;28;20484;-53
2023/08/27 10:23:29;;;;;;;4.03;1.20;;;17.50;99.90;;;;;;5034857;28;20069;-54
2023/08/27 10:25:56;;;;;;;3.47;1.00;;;17.50;99.90;;;;;;5034599;28;20044;-56
2023/08/27 10:28:23;;;;;;;4.00;1.10;;;17.50;99.90;;;;;;5034665;28;20129;-54
2023/08/27 10:30:50;;;;;;;3.45;1.30;;;17.40;99.90;;;;;;5033155;28;20496;-55
2023/08/27 10:33:17;;;;;;;3.53;0.93;;;17.40;99.90;;;;;;5028155;28;20465;-54
2023/08/27 10:35:44;;;;;;;5.82;1.13;;;17.40;99.90;;;;;;5028119;28;20477;-53
2023/08/27 10:38:11;;;;;;;3.90;1.30;;;17.50;99.90;;;;;;5034217;28;20124;-55
2023/08/27 10:40:37;;;;;;;3.08;1.23;;;17.40;99.90;;;;;;5034308;28;20046;-55
2023/08/27 10:43:04;;;;;;;2.40;0.80;;;17.50;99.90;;;;;;5034103;28;20044;-50
2023/08/27 10:45:31;;;;;;;3.50;1.13;;;17.60;99.90;;;;;;5034157;28;20045;-55
2023/08/27 10:47:59;;;;;;;3.97;1.10;;;17.70;99.90;;;;;;5034198;28;20041;-58
2023/08/27 10:50:26;;;;;;;3.78;1.13;;;17.80;99.90;;;;;;5034023;28;20058;-53
2023/08/27 10:52:53;;;;;;;4.63;1.20;;;17.80;99.90;;;;;;5033991;28;20449;-57
2023/08/27 10:55:21;;;;;;;2.22;1.15;;;17.80;99.90;;;;;;5033531;28;20041;-53
2023/08/27 10:57:47;;;;;;;5.00;1.98;;;17.90;99.90;;;;;;5033949;28;20041;-57
2023/08/27 11:00:14;;;;;;;3.50;1.60;;;17.90;99.90;;;;;;5033652;28;20049;-57
2023/08/27 11:02:41;;;;;;;3.85;1.33;;;17.90;99.90;;;;;;5032832;28;20407;-56
2023/08/27 11:05:08;;;;;;;2.72;1.10;;;18.00;99.90;;;;;;5033763;28;20037;-54
2023/08/27 11:07:35;;;;;;;3.13;0.95;;;18.00;99.90;;;;;;5033089;28;20034;-58
2023/08/27 11:10:02;;;;;;;2.78;0.82;;;17.90;99.90;;;;;;5032202;28;20033;-55
2023/08/27 11:12:28;;;;;;;4.07;1.00;;;17.90;99.90;;;;;;5033275;28;20120;-57
2023/08/27 11:14:55;;;;;;;3.55;0.90;;;18.00;99.90;;;;;;5033863;28;20439;-57
2023/08/27 11:17:22;;;;;;;3.38;0.90;;;18.10;99.90;;;;;;5033696;28;20057;-58
2023/08/27 11:19:49;;;;;;;3.65;0.90;;;18.30;99.90;;;;;;5033602;28;20045;-57
2023/08/27 11:22:17;;;;;;;4.03;0.75;;;18.40;99.90;;;;;;5033568;28;20041;-59
2023/08/27 11:24:44;;;;;;;3.25;0.95;;;18.50;99.90;;;;;;5032666;28;20044;-57
2023/08/27 11:27:11;;;;;;;1.98;0.80;;;18.70;99.90;;;;;;5031792;28;20041;-58
2023/08/27 11:29:41;;;;;;;2.25;0.75;;;18.90;99.90;;;;;;5031957;28;20040;-57
2023/08/27 11:32:08;;;;;;;4.03;1.00;;;19.10;99.90;;;;;;5030744;28;20060;-59
2023/08/27 11:34:35;;;;;;;2.20;0.70;;;19.20;99.90;;;;;;5032070;28;20400;-57
2023/08/27 11:37:02;;;;;;;1.98;0.70;;;19.20;99.70;;;;;;5030248;28;20050;-55
2023/08/27 11:39:29;;;;;;;3.17;0.80;;;19.20;99.20;;;;;;5030926;28;20567;-57
2023/08/27 11:41:56;;;;;;;4.22;1.17;;;19.30;99.60;;;;;;5032839;28;20380;-57
2023/08/27 11:44:23;;;;;;;2.85;0.80;;;19.40;99.90;;;;;;5033284;28;20041;-51
2023/08/27 11:46:51;;;;;;;3.15;1.00;;;19.50;99.90;;;;;;5032986;28;20503;-56
2023/08/27 11:49:18;;;;;;;3.33;0.80;;;19.70;99.40;;;;;;5033303;28;20036;-60
2023/08/27 11:51:44;;;;;;;3.03;0.70;;;19.70;99.40;;;;;;5033025;28;20057;-55
2023/08/27 11:54:11;;;;;;;3.33;0.90;;;19.80;99.10;;;;;;5032948;28;20049;-53
2023/08/27 11:56:39;;;;;;;2.47;0.70;;;19.70;97.80;;;;;;5033152;28;20045;-53
2023/08/27 11:59:06;;;;;;;3.40;0.80;;;19.50;97.90;;;;;;5032865;28;20041;-51
2023/08/27 12:01:33;;;;;;;4.40;0.90;;;19.50;98.30;;;;;;5032955;28;20461;-50
2023/08/27 12:04:00;;;;;;;3.15;0.75;;;19.50;98.10;;;;;;5032167;28;20043;-48
2023/08/27 12:06:28;;;;;;;2.78;0.80;;;19.50;97.70;;;;;;5032629;28;20388;-55
2023/08/27 12:08:55;;;;;;;2.20;0.70;;;19.70;98.00;;;;;;5032782;28;20106;-59
2023/08/27 12:11:21;;;;;;;4.05;1.02;;;19.90;98.20;;;;;;5032683;28;20096;-57
2023/08/27 12:13:49;;;;;;;3.15;0.73;;;20.00;97.30;;;;;;5032706;28;20373;-56
2023/08/27 12:16:16;;;;;;;2.40;0.93;;;20.10;96.80;;;;;;5032918;28;20052;-55
2023/08/27 12:18:43;;;;;;;3.35;1.00;;;20.10;97.30;;;;;;5032849;28;20049;-54
2023/08/27 12:21:10;;;;;;;2.22;1.00;;;20.00;96.30;;;;;;5032975;28;20037;-56
2023/08/27 12:23:37;;;;;;;3.35;1.23;;;20.00;96.30;;;;;;5032514;28;20037;-59
2023/08/27 12:26:03;;;;;;;2.53;0.88;;;20.00;96.80;;;;;;5032863;28;20476;-58
2023/08/27 12:28:30;;;;;;;5.00;1.10;;;20.10;97.40;;;;;;5032616;28;20520;-58
2023/08/27 12:31:00;;;;;;;2.17;0.60;;;20.20;96.90;;;;;;5032751;28;20037;-57
2023/08/27 12:33:28;;;;;;;3.50;0.90;;;20.20;96.60;;;;;;5031849;28;20120;-59
2023/08/27 12:35:55;;;;;;;4.57;1.02;;;20.10;96.60;;;;;;5030777;28;20079;-54
2023/08/27 12:38:21;;;;;;;4.32;1.15;;;20.00;97.00;;;;;;5032067;28;20057;-59
2023/08/27 12:40:48;;;;;;;3.65;1.00;;;19.90;97.40;;;;;;5031567;28;20048;-56
2023/08/27 12:43:15;;;;;;;4.53;0.82;;;19.70;97.00;;;;;;5031542;28;20042;-55
2023/08/27 12:45:42;;;;;;;3.33;1.10;;;19.50;98.10;;;;;;5036170;28;20042;-55